createdAt,value
2018-02-03T00:02:17.164Z,100274.61
2018-02-03T00:04:45.614Z,100273.14
2018-02-03T00:07:14.667Z,100278.82
2018-02-03T00:09:43.249Z,100270.78
2018-02-03T00:12:11.669Z,100269.47
2018-02-03T00:14:42.538Z,100268.42
2018-02-03T00:17:14.926Z,100274.80
2018-02-03T00:19:49.026Z,100272.22
2018-02-03T00:22:23.596Z,100273.46
2018-02-03T00:24:52.272Z,100274.38
2018-02-03T00:27:22.315Z,100274.19
2018-02-03T00:29:51.669Z,100279.13
2018-02-03T00:32:20.680Z,100287.60
2018-02-03T00:34:51.958Z,100285.29
2018-02-03T00:37:20.499Z,100290.39
2018-02-03T00:39:49.248Z,100282.92
2018-02-03T00:42:18.496Z,100283.39
2018-02-03T00:44:47.744Z,100289.77
2018-02-03T00:47:16.190Z,100290.03
2018-02-03T00:49:45.869Z,100295.39
2018-02-03T00:52:15.275Z,100296.30
2018-02-03T00:54:43.686Z,100300.95
2018-02-03T00:57:12.237Z,100302.38
2018-02-03T00:59:40.675Z,100306.34
2018-02-03T01:02:09.085Z,100307.27
2018-02-03T01:04:37.707Z,100307.70
2018-02-03T01:07:06.141Z,100315.42
2018-02-03T01:09:36.255Z,100318.08
2018-02-03T01:12:04.915Z,100315.53
2018-02-03T01:14:33.621Z,100318.66
2018-02-03T01:17:02.049Z,100317.67
2018-02-03T01:19:30.507Z,100315.48
2018-02-03T01:21:58.958Z,100321.14
2018-02-03T01:24:29.434Z,100327.30
2018-02-03T01:26:58.061Z,100325.32
2018-02-03T01:29:26.747Z,100321.11
2018-02-03T01:31:55.437Z,100321.20
2018-02-03T01:34:24.223Z,100322.30
2018-02-03T01:36:52.922Z,100318.33
2018-02-03T01:39:21.815Z,100318.30
2018-02-03T01:41:50.550Z,100320.23
2018-02-03T01:44:19.268Z,100323.67
2018-02-03T01:46:47.816Z,100321.81
2018-02-03T01:49:16.412Z,100319.73
2018-02-03T01:51:44.907Z,100327.41
2018-02-03T01:54:20.237Z,100320.25
2018-02-03T01:56:49.026Z,100324.98
2018-02-03T01:59:18.076Z,100319.45
2018-02-03T02:01:46.594Z,100318.75
2018-02-03T02:04:15.132Z,100314.30
2018-02-03T02:06:43.588Z,100316.77
2018-02-03T02:09:12.064Z,100318.91
2018-02-03T02:11:40.505Z,100329.09
2018-02-03T02:14:09.909Z,100318.14
2018-02-03T02:16:38.459Z,100317.77
2018-02-03T02:19:07.152Z,100314.32
2018-02-03T02:21:35.626Z,100317.59
2018-02-03T02:24:04.135Z,100322.36
2018-02-03T02:26:33.549Z,100322.42
2018-02-03T02:29:02.136Z,100320.86
2018-02-03T02:31:30.769Z,100327.41
2018-02-03T02:33:59.509Z,100320.44
2018-02-03T02:36:28.009Z,100324.68
2018-02-03T02:38:56.572Z,100323.66
2018-02-03T02:41:25.104Z,100321.92
2018-02-03T02:43:53.742Z,100325.83
2018-02-03T02:46:22.352Z,100330.67
2018-02-03T02:48:50.995Z,100329.14
2018-02-03T02:51:19.526Z,100322.78
2018-02-03T02:53:48.004Z,100327.20
2018-02-03T02:56:16.435Z,100317.41
2018-02-03T02:58:45.923Z,100319.72
2018-02-03T03:01:14.453Z,100316.52
2018-02-03T03:03:42.891Z,100311.08
2018-02-03T03:06:12.209Z,100304.94
2018-02-03T03:08:40.683Z,100308.00
2018-02-03T03:11:09.121Z,100305.52
2018-02-03T03:13:38.624Z,100303.11
2018-02-03T03:16:07.644Z,100307.22
2018-02-03T03:18:36.155Z,100305.83
2018-02-03T03:21:05.611Z,100308.99
2018-02-03T03:23:34.443Z,100309.45
2018-02-03T03:26:03.781Z,100311.36
2018-02-03T03:28:33.038Z,100299.61
2018-02-03T03:31:01.726Z,100301.43
2018-02-03T03:33:30.201Z,100305.02
2018-02-03T03:35:58.677Z,100304.02
2018-02-03T03:38:27.771Z,100307.56
2018-02-03T03:40:56.251Z,100309.36
2018-02-03T03:43:24.834Z,100307.77
2018-02-03T03:45:53.520Z,100310.59
2018-02-03T03:48:22.328Z,100307.28
2018-02-03T03:50:50.913Z,100312.25
2018-02-03T03:53:19.496Z,100310.27
2018-02-03T03:55:47.972Z,100320.38
2018-02-03T03:58:16.430Z,100317.92
2018-02-03T04:00:44.920Z,100321.71
2018-02-03T04:03:14.062Z,100330.95
2018-02-03T04:05:42.983Z,100332.72
2018-02-03T04:08:11.626Z,100333.77
2018-02-03T04:10:40.125Z,100328.98
2018-02-03T04:13:08.630Z,100327.18
2018-02-03T04:15:37.646Z,100323.28
2018-02-03T04:18:06.125Z,100332.25
2018-02-03T04:20:35.616Z,100330.39
2018-02-03T04:23:05.222Z,100338.98
2018-02-03T04:25:34.071Z,100342.52
2018-02-03T04:28:03.880Z,100339.30
2018-02-03T04:30:32.382Z,100341.44
2018-02-03T04:33:01.117Z,100340.74
2018-02-03T04:35:30.495Z,100333.70
2018-02-03T04:37:58.999Z,100333.95
2018-02-03T04:40:27.580Z,100341.28
2018-02-03T04:42:56.165Z,100335.24
2018-02-03T04:45:24.830Z,100336.36
2018-02-03T04:47:53.319Z,100336.16
2018-02-03T04:50:21.907Z,100336.05
2018-02-03T04:52:50.492Z,100342.59
2018-02-03T04:55:18.931Z,100349.75
2018-02-03T04:57:47.385Z,100349.81
2018-02-03T05:00:15.868Z,100346.38
2018-02-03T05:02:44.290Z,100344.84
2018-02-03T05:05:12.728Z,100346.16
2018-02-03T05:07:41.172Z,100342.68
2018-02-03T05:10:09.630Z,100341.63
2018-02-03T05:12:38.110Z,100339.89
2018-02-03T05:15:06.669Z,100342.98
2018-02-03T05:17:36.220Z,100340.66
2018-02-03T05:20:05.236Z,100340.42
2018-02-03T05:22:33.673Z,100345.61
2018-02-03T05:25:02.149Z,100350.61
2018-02-03T05:27:30.612Z,100349.44
2018-02-03T05:29:59.170Z,100349.92
2018-02-03T05:32:27.695Z,100358.78
2018-02-03T05:34:56.477Z,100360.73
2018-02-03T05:37:25.498Z,100360.88
2018-02-03T05:39:54.065Z,100354.26
2018-02-03T05:42:22.505Z,100363.81
2018-02-03T05:44:51.129Z,100356.05
2018-02-03T05:47:20.418Z,100355.89
2018-02-03T05:49:48.853Z,100360.44
2018-02-03T05:52:17.283Z,100353.37
2018-02-03T05:54:45.689Z,100355.05
2018-02-03T05:57:14.132Z,100350.73
2018-02-03T05:59:42.756Z,100356.23
2018-02-03T06:02:11.212Z,100348.40
2018-02-03T06:04:39.653Z,100351.06
2018-02-03T06:07:08.322Z,100355.14
2018-02-03T06:09:36.790Z,100347.29
2018-02-03T06:12:05.272Z,100348.27
2018-02-03T06:14:34.193Z,100351.20
2018-02-03T06:17:02.651Z,100352.80
2018-02-03T06:19:31.116Z,100348.80
2018-02-03T06:21:59.907Z,100359.45
2018-02-03T06:24:28.588Z,100352.69
2018-02-03T06:26:57.275Z,100354.74
2018-02-03T06:29:25.813Z,100349.63
2018-02-03T06:31:54.241Z,100351.33
2018-02-03T06:34:22.880Z,100353.62
2018-02-03T06:36:51.465Z,100357.88
2018-02-03T06:39:20.097Z,100358.02
2018-02-03T06:41:48.666Z,100360.52
2018-02-03T06:44:17.940Z,100363.02
2018-02-03T06:46:46.613Z,100365.62
2018-02-03T06:49:15.040Z,100370.62
2018-02-03T06:51:44.392Z,100375.14
2018-02-03T06:54:12.950Z,100370.53
2018-02-03T06:56:41.400Z,100374.36
2018-02-03T06:59:10.802Z,100376.50
2018-02-03T07:01:39.340Z,100367.73
2018-02-03T07:04:11.096Z,100375.50
2018-02-03T07:06:39.701Z,100375.55
2018-02-03T07:09:08.127Z,100371.08
2018-02-03T07:11:36.788Z,100376.85
2018-02-03T07:14:05.336Z,100374.33
2018-02-03T07:16:34.828Z,100376.93
2018-02-03T07:19:04.710Z,100372.91
2018-02-03T07:21:33.314Z,100373.19
2018-02-03T07:24:01.787Z,100371.98
2018-02-03T07:26:30.482Z,100378.33
2018-02-03T07:28:59.085Z,100378.83
2018-02-03T07:31:27.549Z,100379.72
2018-02-03T07:33:56.149Z,100388.06
2018-02-03T07:36:25.344Z,100391.46
2018-02-03T07:38:53.938Z,100391.36
2018-02-03T07:41:23.073Z,100399.36
2018-02-03T07:43:52.410Z,100401.05
2018-02-03T07:46:21.112Z,100401.85
2018-02-03T07:48:49.884Z,100405.69
2018-02-03T07:51:18.468Z,100396.89
2018-02-03T07:53:47.766Z,100403.80
2018-02-03T07:56:16.325Z,100404.25
2018-02-03T07:58:44.827Z,100397.77
2018-02-03T08:01:13.484Z,100397.29
2018-02-03T08:03:42.252Z,100400.54
2018-02-03T08:06:10.688Z,100404.51
2018-02-03T08:08:39.167Z,100406.90
2018-02-03T08:11:07.635Z,100404.22
2018-02-03T08:13:36.355Z,100413.12
2018-02-03T08:16:05.702Z,100403.45
2018-02-03T08:18:34.156Z,100403.82
2018-02-03T08:21:02.694Z,100402.13
2018-02-03T08:23:31.269Z,100403.77
2018-02-03T08:25:59.830Z,100401.38
2018-02-03T08:28:28.552Z,100402.16
2018-02-03T08:30:57.192Z,100401.41
2018-02-03T08:33:25.833Z,100412.81
2018-02-03T08:35:54.398Z,100408.39
2018-02-03T08:38:23.286Z,100401.41
2018-02-03T08:40:51.972Z,100410.01
2018-02-03T08:43:20.649Z,100413.66
2018-02-03T08:45:49.133Z,100413.30
2018-02-03T08:48:17.876Z,100408.70
2018-02-03T08:50:46.398Z,100413.28
2018-02-03T08:53:14.884Z,100416.30
2018-02-03T08:55:43.671Z,100411.02
2018-02-03T08:58:12.111Z,100410.00
2018-02-03T09:00:40.567Z,100409.92
2018-02-03T09:03:09.531Z,100403.45
2018-02-03T09:05:38.064Z,100406.42
2018-02-03T09:08:06.569Z,100414.06
2018-02-03T09:10:35.910Z,100412.30
2018-02-03T09:13:04.474Z,100407.80
2018-02-03T09:15:33.051Z,100417.30
2018-02-03T09:18:01.732Z,100420.09
2018-02-03T09:20:30.353Z,100411.86
2018-02-03T09:23:00.121Z,100403.66
2018-02-03T09:25:29.693Z,100406.92
2018-02-03T09:27:58.343Z,100412.36
2018-02-03T09:30:26.960Z,100412.84
2018-02-03T09:32:55.798Z,100421.13
2018-02-03T09:35:24.391Z,100418.34
2018-02-03T09:37:52.973Z,100423.37
2018-02-03T09:40:30.447Z,100419.50
2018-02-03T09:43:01.270Z,100424.78
2018-02-03T09:45:29.882Z,100431.20
2018-02-03T09:47:58.471Z,100421.50
2018-02-03T09:50:26.957Z,100419.94
2018-02-03T09:52:56.022Z,100425.41
2018-02-03T09:55:24.813Z,100421.25
2018-02-03T09:57:53.397Z,100422.81
2018-02-03T10:00:22.257Z,100424.73
2018-02-03T10:02:51.898Z,100426.56
2018-02-03T10:05:21.271Z,100434.38
2018-02-03T10:07:49.752Z,100425.94
2018-02-03T10:10:18.181Z,100427.55
2018-02-03T10:12:46.889Z,100425.64
2018-02-03T10:15:16.529Z,100427.03
2018-02-03T10:17:45.002Z,100430.88
2018-02-03T10:20:13.408Z,100432.05
2018-02-03T10:22:42.034Z,100433.36
2018-02-03T10:25:10.464Z,100431.10
2018-02-03T10:27:38.916Z,100439.03
2018-02-03T10:30:07.400Z,100437.51
2018-02-03T10:32:36.025Z,100430.22
2018-02-03T10:35:04.468Z,100430.63
2018-02-03T10:37:33.125Z,100430.68
2018-02-03T10:40:01.565Z,100433.16
2018-02-03T10:42:30.093Z,100427.28
2018-02-03T10:44:58.622Z,100434.14
2018-02-03T10:47:27.105Z,100431.18
2018-02-03T10:49:55.800Z,100431.33
2018-02-03T10:52:24.557Z,100431.33
2018-02-03T10:54:53.220Z,100427.98
2018-02-03T10:57:21.746Z,100430.47
2018-02-03T10:59:50.500Z,100422.30
2018-02-03T11:02:19.287Z,100421.92
2018-02-03T11:04:47.730Z,100421.02
2018-02-03T11:07:16.217Z,100418.02
2018-02-03T11:09:44.684Z,100420.23
2018-02-03T11:12:13.085Z,100423.42
2018-02-03T11:14:41.513Z,100418.60
2018-02-03T11:17:09.937Z,100420.88
2018-02-03T11:19:38.392Z,100419.53
2018-02-03T11:22:07.230Z,100422.00
2018-02-03T11:24:35.861Z,100428.48
2018-02-03T11:27:04.398Z,100429.24
2018-02-03T11:29:33.236Z,100426.28
2018-02-03T11:32:01.841Z,100415.06
2018-02-03T11:34:30.289Z,100425.22
2018-02-03T11:36:58.969Z,100423.77
2018-02-03T11:39:27.765Z,100411.40
2018-02-03T11:41:56.186Z,100422.17
2018-02-03T11:44:25.272Z,100426.53
2018-02-03T11:46:53.727Z,100426.81
2018-02-03T11:49:22.812Z,100422.17
2018-02-03T11:51:51.419Z,100420.40
2018-02-03T11:54:19.979Z,100418.78
2018-02-03T11:56:48.408Z,100415.55
2018-02-03T11:59:17.091Z,100419.23
2018-02-03T12:01:45.500Z,100421.46
2018-02-03T12:04:13.965Z,100422.58
2018-02-03T12:06:42.459Z,100419.80
2018-02-03T12:09:11.132Z,100415.58
2018-02-03T12:11:39.545Z,100416.91
2018-02-03T12:14:08.068Z,100412.08
2018-02-03T12:16:36.519Z,100411.33
2018-02-03T12:19:05.092Z,100411.45
2018-02-03T12:21:33.550Z,100406.41
2018-02-03T12:24:02.075Z,100411.03
2018-02-03T12:26:30.916Z,100413.66
2018-02-03T12:29:00.600Z,100413.66
2018-02-03T12:31:29.255Z,100410.06
2018-02-03T12:33:58.893Z,100408.10
2018-02-03T12:36:29.042Z,100411.58
2018-02-03T12:38:57.594Z,100411.95
2018-02-03T12:41:26.523Z,100402.37
2018-02-03T12:43:55.138Z,100410.55
2018-02-03T12:46:24.006Z,100412.36
2018-02-03T12:48:52.866Z,100410.35
2018-02-03T12:51:21.793Z,100416.69
2018-02-03T12:53:50.320Z,100412.27
2018-02-03T12:56:18.800Z,100413.05
2018-02-03T12:58:49.984Z,100418.48
2018-02-03T13:01:18.543Z,100418.03
2018-02-03T13:03:46.974Z,100413.03
2018-02-03T13:06:15.452Z,100417.33
2018-02-03T13:08:43.996Z,100418.09
2018-02-03T13:11:12.694Z,100410.87
2018-02-03T13:13:41.393Z,100414.95
2018-02-03T13:16:09.882Z,100418.01
2018-02-03T13:18:38.336Z,100417.23
2018-02-03T13:21:06.947Z,100429.59
2018-02-03T13:23:35.512Z,100423.94
2018-02-03T13:26:04.071Z,100416.75
2018-02-03T13:28:32.821Z,100424.02
2018-02-03T13:31:01.371Z,100423.34
2018-02-03T13:33:30.015Z,100424.89
2018-02-03T13:35:59.847Z,100428.70
2018-02-03T13:38:28.688Z,100425.75
2018-02-03T13:40:57.413Z,100430.16
2018-02-03T13:43:26.132Z,100431.05
2018-02-03T13:45:56.163Z,100425.45
2018-02-03T13:48:25.585Z,100424.66
2018-02-03T13:50:54.303Z,100428.86
2018-02-03T13:53:22.999Z,100438.45
2018-02-03T13:55:51.632Z,100431.11
2018-02-03T13:58:20.468Z,100435.51
2018-02-03T14:00:50.027Z,100437.90
2018-02-03T14:03:19.433Z,100433.50
2018-02-03T14:05:47.981Z,100436.81
2018-02-03T14:08:16.866Z,100440.75
2018-02-03T14:10:45.279Z,100440.61
2018-02-03T14:13:14.344Z,100442.27
2018-02-03T14:15:42.858Z,100441.65
2018-02-03T14:18:11.382Z,100448.10
2018-02-03T14:20:40.545Z,100448.09
2018-02-03T14:23:09.117Z,100455.38
2018-02-03T14:25:37.581Z,100454.77
2018-02-03T14:28:06.942Z,100457.46
2018-02-03T14:30:36.299Z,100456.11
2018-02-03T14:33:04.724Z,100460.42
2018-02-03T14:35:33.780Z,100451.69
2018-02-03T14:38:02.300Z,100453.83
2018-02-03T14:40:30.897Z,100450.00
2018-02-03T14:42:59.588Z,100463.37
2018-02-03T14:45:28.106Z,100458.25
2018-02-03T14:47:57.044Z,100456.67
2018-02-03T14:50:25.888Z,100457.95
2018-02-03T14:52:54.560Z,100462.41
2018-02-03T14:55:23.585Z,100465.78
2018-02-03T14:57:52.151Z,100462.70
2018-02-03T15:00:22.263Z,100465.08
2018-02-03T15:02:51.466Z,100469.09
2018-02-03T15:05:20.269Z,100473.03
2018-02-03T15:07:51.239Z,100470.84
2018-02-03T15:10:22.856Z,100467.20
2018-02-03T15:12:53.631Z,100471.86
2018-02-03T15:15:23.438Z,100474.42
2018-02-03T15:17:53.928Z,100475.55
2018-02-03T15:20:23.451Z,100478.98
2018-02-03T15:22:55.009Z,100479.88
2018-02-03T15:25:24.083Z,100482.78
2018-02-03T15:27:56.477Z,100479.36
2018-02-03T15:30:25.185Z,100485.16
2018-02-03T15:32:59.993Z,100479.41
2018-02-03T15:35:28.802Z,100483.27
2018-02-03T15:37:57.701Z,100483.42
2018-02-03T15:43:22.916Z,100489.36
2018-02-03T15:45:55.018Z,100489.36
2018-02-03T15:48:24.237Z,100489.28
2018-02-03T15:50:53.227Z,100490.82
2018-02-03T15:53:21.874Z,100493.29
2018-02-03T15:55:50.647Z,100490.37
2018-02-03T15:58:19.364Z,100494.12
2018-02-03T16:03:17.341Z,100495.88
2018-02-03T16:05:47.638Z,100490.45
2018-02-03T16:08:19.251Z,100492.35
2018-02-03T16:10:48.718Z,100496.32
2018-02-03T16:13:17.280Z,100499.42
2018-02-03T16:15:46.082Z,100499.61
2018-02-03T16:18:14.581Z,100497.78
2018-02-03T16:20:43.261Z,100494.43
2018-02-03T16:23:11.876Z,100496.88
2018-02-03T16:25:41.406Z,100497.28
2018-02-03T16:28:09.982Z,100495.97
2018-02-03T16:30:39.490Z,100493.36
2018-02-03T16:33:08.010Z,100496.50
2018-02-03T16:35:36.565Z,100494.34
2018-02-03T16:38:05.629Z,100495.05
2018-02-03T16:40:34.073Z,100499.98
2018-02-03T16:43:02.492Z,100496.37
2018-02-03T16:45:31.945Z,100495.41
2018-02-03T16:48:00.945Z,100501.05
2018-02-03T16:50:31.502Z,100502.77
2018-02-03T16:53:00.217Z,100503.59
2018-02-03T16:55:28.749Z,100503.26
2018-02-03T16:57:57.851Z,100506.52
2018-02-03T17:00:26.483Z,100505.55
2018-02-03T17:02:55.211Z,100515.80
2018-02-03T17:05:23.743Z,100519.44
2018-02-03T17:07:53.705Z,100521.83
2018-02-03T17:10:22.248Z,100522.87
2018-02-03T17:12:51.537Z,100521.78
2018-02-03T17:15:20.786Z,100530.14
2018-02-03T17:17:49.367Z,100523.80
2018-02-03T17:20:18.102Z,100524.77
2018-02-03T17:22:51.451Z,100519.54
2018-02-03T17:25:20.237Z,100525.36
2018-02-03T17:27:49.139Z,100529.97
2018-02-03T17:30:22.594Z,100528.42
2018-02-03T17:32:51.377Z,100535.74
2018-02-03T17:35:21.686Z,100538.97
2018-02-03T17:37:56.157Z,100539.24
2018-02-03T17:40:24.742Z,100542.28
2018-02-03T17:42:53.632Z,100545.91
2018-02-03T17:45:29.440Z,100545.05
2018-02-03T17:47:58.282Z,100551.69
2018-02-03T17:50:26.950Z,100555.48
2018-02-03T17:52:55.649Z,100550.08
2018-02-03T17:55:29.661Z,100549.81
2018-02-03T17:57:58.497Z,100563.76
2018-02-03T18:00:27.239Z,100561.39
2018-02-03T18:02:55.917Z,100559.13
2018-02-03T18:05:24.605Z,100562.75
2018-02-03T18:07:53.290Z,100558.02
2018-02-03T18:10:22.240Z,100554.92
2018-02-03T18:12:51.862Z,100559.19
2018-02-03T18:15:21.705Z,100564.95
2018-02-03T18:17:51.434Z,100570.10
2018-02-03T18:20:20.178Z,100567.06
2018-02-03T18:22:48.903Z,100573.45
2018-02-03T18:25:17.516Z,100564.75
2018-02-03T18:27:46.029Z,100562.27
2018-02-03T18:30:15.398Z,100573.78
2018-02-03T18:32:44.218Z,100581.98
2018-02-03T18:35:12.802Z,100571.51
2018-02-03T18:37:41.235Z,100578.41
2018-02-03T18:40:09.680Z,100581.02
2018-02-03T18:42:39.030Z,100584.74
2018-02-03T18:45:07.502Z,100585.39
2018-02-03T18:47:35.908Z,100586.69
2018-02-03T18:50:04.896Z,100587.72
2018-02-03T18:52:33.359Z,100595.16
2018-02-03T18:55:01.972Z,100595.23
2018-02-03T18:57:31.103Z,100592.24
2018-02-03T19:00:00.168Z,100597.00
2018-02-03T19:02:28.908Z,100597.89
2018-02-03T19:04:57.564Z,100605.97
2018-02-03T19:07:26.149Z,100594.20
2018-02-03T19:09:54.654Z,100600.02
2018-02-03T19:12:23.761Z,100613.22
2018-02-03T19:14:52.364Z,100614.79
2018-02-03T19:17:21.304Z,100612.66
2018-02-03T19:19:49.884Z,100608.50
2018-02-03T19:22:18.541Z,100616.00
2018-02-03T19:24:47.007Z,100613.74
2018-02-03T19:27:16.617Z,100612.56
2018-02-03T19:29:45.039Z,100618.17
2018-02-03T19:32:13.477Z,100614.23
2018-02-03T19:34:42.614Z,100618.66
2018-02-03T19:37:11.041Z,100621.00
2018-02-03T19:39:39.476Z,100616.91
2018-02-03T19:42:09.458Z,100625.19
2018-02-03T19:44:37.923Z,100624.29
2018-02-03T19:47:06.400Z,100626.69
2018-02-03T19:49:35.087Z,100624.61
2018-02-03T19:52:03.672Z,100638.42
2018-02-03T19:54:36.909Z,100631.88
2018-02-03T19:57:05.414Z,100635.95
2018-02-03T19:59:33.872Z,100638.58
2018-02-03T20:02:03.115Z,100638.63
2018-02-03T20:04:31.593Z,100641.61
2018-02-03T20:07:00.037Z,100643.41
2018-02-03T20:09:29.455Z,100640.70
2018-02-03T20:11:57.920Z,100642.45
2018-02-03T20:14:26.516Z,100650.70
2018-02-03T20:16:56.229Z,100649.34
2018-02-03T20:19:25.663Z,100660.78
2018-02-03T20:21:54.134Z,100663.61
2018-02-03T20:24:26.585Z,100652.90
2018-02-03T20:26:56.791Z,100654.29
2018-02-03T20:29:25.464Z,100652.98
2018-02-03T20:31:54.020Z,100654.31
2018-02-03T20:34:22.499Z,100651.47
2018-02-03T20:36:50.951Z,100656.64
2018-02-03T20:39:19.660Z,100664.88
2018-02-03T20:41:48.121Z,100662.76
2018-02-03T20:44:16.646Z,100661.64
2018-02-03T20:46:45.157Z,100663.52
2018-02-03T20:49:13.557Z,100665.36
2018-02-03T20:51:42.013Z,100665.30
2018-02-03T20:54:11.276Z,100672.53
2018-02-03T20:56:39.799Z,100678.80
2018-02-03T20:59:08.227Z,100678.80
2018-02-03T21:01:36.738Z,100680.19
2018-02-03T21:04:05.201Z,100684.41
2018-02-03T21:06:33.695Z,100683.80
2018-02-03T21:09:03.035Z,100694.08
2018-02-03T21:11:31.481Z,100691.41
2018-02-03T21:13:59.953Z,100688.63
2018-02-03T21:16:29.263Z,100699.56
2018-02-03T21:18:57.784Z,100701.37
2018-02-03T21:21:26.434Z,100703.28
2018-02-03T21:23:55.534Z,100702.21
2018-02-03T21:26:24.182Z,100707.76
2018-02-03T21:28:52.733Z,100705.80
2018-02-03T21:31:21.510Z,100714.61
2018-02-03T21:33:50.652Z,100718.01
2018-02-03T21:36:19.159Z,100713.38
2018-02-03T21:38:49.109Z,100717.63
2018-02-03T21:41:17.694Z,100720.52
2018-02-03T21:43:46.120Z,100727.16
2018-02-03T21:46:14.589Z,100717.53
2018-02-03T21:48:43.323Z,100728.20
2018-02-03T21:51:11.762Z,100725.65
2018-02-03T21:53:40.544Z,100727.33
2018-02-03T21:56:09.076Z,100729.56
2018-02-03T21:58:37.553Z,100743.53
2018-02-03T22:01:06.965Z,100740.06
2018-02-03T22:03:35.404Z,100742.11
2018-02-03T22:06:03.918Z,100746.63
2018-02-03T22:08:32.990Z,100748.19
2018-02-03T22:11:03.452Z,100744.80
2018-02-03T22:13:32.027Z,100746.16
2018-02-03T22:16:01.637Z,100746.66
2018-02-03T22:18:30.147Z,100754.46
2018-02-03T22:20:58.667Z,100759.22
2018-02-03T22:23:27.825Z,100761.09
2018-02-03T22:25:56.322Z,100761.58
2018-02-03T22:28:24.849Z,100759.86
2018-02-03T22:30:53.547Z,100768.41
2018-02-03T22:33:23.281Z,100768.71
2018-02-03T22:35:53.180Z,100771.10
2018-02-03T22:38:22.327Z,100774.81
2018-02-03T22:40:51.980Z,100765.63
2018-02-03T22:43:21.397Z,100767.89
2018-02-03T22:45:50.015Z,100770.42
2018-02-03T22:48:18.513Z,100764.66
2018-02-03T22:50:46.984Z,100768.41
2018-02-03T22:53:15.627Z,100768.75
2018-02-03T22:55:44.116Z,100766.64
2018-02-03T22:58:12.574Z,100767.64
2018-02-03T23:00:41.061Z,100771.98
2018-02-03T23:03:09.616Z,100771.22
2018-02-03T23:05:38.117Z,100772.65
2018-02-03T23:08:06.809Z,100779.64
2018-02-03T23:10:35.424Z,100777.23
2018-02-03T23:13:04.675Z,100780.38
2018-02-03T23:15:33.666Z,100777.43
2018-02-03T23:18:02.393Z,100782.02
2018-02-03T23:20:32.021Z,100781.50
2018-02-03T23:23:03.889Z,100781.33
2018-02-03T23:25:43.333Z,100781.86
2018-02-03T23:28:16.606Z,100783.52
2018-02-03T23:30:45.436Z,100780.48
2018-02-03T23:33:15.471Z,100780.89
2018-02-03T23:35:44.538Z,100784.36
2018-02-03T23:38:14.310Z,100783.48
2018-02-03T23:40:43.523Z,100789.16
2018-02-03T23:43:13.447Z,100786.92
2018-02-03T23:45:42.805Z,100786.02
2018-02-03T23:48:11.995Z,100779.41
2018-02-03T23:50:43.271Z,100786.53
2018-02-03T23:53:16.806Z,100781.65
2018-02-03T23:55:48.252Z,100784.59
2018-02-03T23:58:19.130Z,100789.19
